createdAt,value
2022-12-01T00:01:27.027Z,13.68
2022-12-01T00:03:54.747Z,14.40
2022-12-01T00:06:22.536Z,13.70
2022-12-01T00:09:12.231Z,14.00
2022-12-01T00:11:42.739Z,14.57
2022-12-01T00:14:10.512Z,14.60
2022-12-01T00:16:40.575Z,14.13
2022-12-01T00:19:08.799Z,14.02
2022-12-01T00:21:36.604Z,12.55
2022-12-01T00:24:04.510Z,12.05
2022-12-01T00:26:32.072Z,13.70
2022-12-01T00:28:59.786Z,12.68
2022-12-01T00:31:27.912Z,12.98
2022-12-01T00:33:55.961Z,13.00
2022-12-01T00:36:25.091Z,12.57
2022-12-01T00:38:57.052Z,13.73
2022-12-01T00:41:25.723Z,12.40
2022-12-01T00:43:53.463Z,10.35
2022-12-01T00:46:21.397Z,14.77
2022-12-01T00:48:49.508Z,10.20
2022-12-01T00:51:17.298Z,13.02
2022-12-01T00:53:44.825Z,13.50
2022-12-01T00:56:12.250Z,13.73
2022-12-01T00:58:39.759Z,13.80
2022-12-01T01:01:07.668Z,13.52
2022-12-01T01:03:35.519Z,9.93
2022-12-01T01:06:08.836Z,13.52
2022-12-01T01:08:36.652Z,12.82
2022-12-01T01:11:06.238Z,12.73
2022-12-01T01:13:34.439Z,12.48
2022-12-01T01:16:08.301Z,9.85
2022-12-01T01:18:35.862Z,12.85
2022-12-01T01:21:08.858Z,12.07
2022-12-01T01:23:36.343Z,12.15
2022-12-01T01:26:14.415Z,11.55
2022-12-01T01:28:42.413Z,8.20
2022-12-01T01:31:12.429Z,10.88
2022-12-01T01:33:40.005Z,9.18
2022-12-01T01:36:07.757Z,9.95
2022-12-01T01:38:36.307Z,9.80
2022-12-01T01:41:05.612Z,11.38
2022-12-01T01:46:15.609Z,10.98
2022-12-01T01:49:10.501Z,10.30
2022-12-01T01:51:40.568Z,10.10
2022-12-01T01:54:29.382Z,9.70
2022-12-01T01:59:31.799Z,10.48
2022-12-01T02:02:06.686Z,11.18
2022-12-01T02:04:36.616Z,10.10
2022-12-01T02:07:05.586Z,10.55
2022-12-01T02:09:33.411Z,10.68
2022-12-01T02:12:22.886Z,10.00
2022-12-01T02:15:06.634Z,10.52
2022-12-01T02:17:46.034Z,10.52
2022-12-01T02:20:38.518Z,11.20
2022-12-01T02:23:28.043Z,10.30
2022-12-01T02:26:14.446Z,10.88
2022-12-01T02:29:22.655Z,10.45
2022-12-01T02:32:06.184Z,10.05
2022-12-01T02:34:44.392Z,9.70
2022-12-01T02:37:42.294Z,10.02
2022-12-01T02:40:46.900Z,9.50
2022-12-01T02:43:27.570Z,9.45
2022-12-01T02:46:29.585Z,10.20
2022-12-01T02:49:05.338Z,10.48
2022-12-01T02:51:37.093Z,9.68
2022-12-01T02:54:06.057Z,10.32
2022-12-01T02:56:33.562Z,9.90
2022-12-01T02:59:01.316Z,10.45
2022-12-01T03:02:00.656Z,11.63
2022-12-01T03:05:03.464Z,10.45
2022-12-01T03:07:34.226Z,10.13
2022-12-01T03:10:25.227Z,11.02
2022-12-01T03:13:22.084Z,10.65
2022-12-01T03:16:12.431Z,10.40
2022-12-01T03:18:55.628Z,9.35
2022-12-01T03:21:31.901Z,9.75
2022-12-01T03:24:17.302Z,10.13
2022-12-01T03:26:49.612Z,10.00
2022-12-01T03:29:24.873Z,10.85
2022-12-01T03:31:58.727Z,10.05
2022-12-01T03:35:11.065Z,10.15
2022-12-01T03:37:45.009Z,11.45
2022-12-01T03:40:18.680Z,10.45
2022-12-01T03:42:52.817Z,10.30
2022-12-01T03:45:28.069Z,11.30
2022-12-01T03:47:55.685Z,10.77
2022-12-01T03:50:29.715Z,8.43
2022-12-01T03:53:06.288Z,10.45
2022-12-01T03:55:41.152Z,10.13
2022-12-01T03:58:16.498Z,9.85
2022-12-01T04:00:49.972Z,10.07
2022-12-01T04:03:20.271Z,10.25
2022-12-01T04:05:47.739Z,11.50
2022-12-01T04:08:15.142Z,10.63
2022-12-01T04:10:42.901Z,9.93
2022-12-01T04:13:22.712Z,9.77
2022-12-01T04:15:55.658Z,9.75
2022-12-01T04:18:23.142Z,10.02
2022-12-01T04:20:51.123Z,10.15
2022-12-01T04:23:37.646Z,9.90
2022-12-01T04:26:05.356Z,9.90
2022-12-01T04:28:33.153Z,8.55
2022-12-01T04:31:00.884Z,10.88
2022-12-01T04:33:29.810Z,10.50
2022-12-01T04:36:01.496Z,9.93
2022-12-01T04:38:38.997Z,10.93
2022-12-01T04:41:11.069Z,9.93
2022-12-01T04:43:39.677Z,10.60
2022-12-01T04:46:08.201Z,11.73
2022-12-01T04:48:36.477Z,9.23
2022-12-01T04:51:06.404Z,8.32
2022-12-01T04:53:35.156Z,10.23
2022-12-01T04:56:04.075Z,10.48
2022-12-01T05:01:10.785Z,11.25
2022-12-01T05:03:44.204Z,10.65
2022-12-01T05:06:14.774Z,11.15
2022-12-01T05:08:42.680Z,11.43
2022-12-01T05:11:11.811Z,12.05
2022-12-01T05:13:41.134Z,11.85
2022-12-01T05:16:11.061Z,10.48
2022-12-01T05:18:39.071Z,11.95
2022-12-01T05:21:08.479Z,11.13
2022-12-01T05:23:37.184Z,10.68
2022-12-01T05:26:06.393Z,11.45
2022-12-01T05:28:34.273Z,11.32
2022-12-01T05:31:02.504Z,11.63
2022-12-01T05:33:30.943Z,12.38
2022-12-01T05:35:58.621Z,9.30
2022-12-01T05:38:26.193Z,11.77
2022-12-01T05:40:55.594Z,12.63
2022-12-01T05:43:29.083Z,11.73
2022-12-01T05:45:57.822Z,12.07
2022-12-01T05:48:25.900Z,12.35
2022-12-01T05:50:53.709Z,11.93
2022-12-01T05:53:21.345Z,12.90
2022-12-01T05:55:55.264Z,12.75
2022-12-01T05:58:23.017Z,12.73
2022-12-01T06:00:50.745Z,13.45
2022-12-01T06:03:18.529Z,13.13
2022-12-01T06:05:46.281Z,12.60
2022-12-01T06:08:13.994Z,12.80
2022-12-01T06:10:41.634Z,12.52
2022-12-01T06:13:09.360Z,11.40
2022-12-01T06:15:37.459Z,11.50
2022-12-01T06:18:05.527Z,8.27
2022-12-01T06:20:33.243Z,10.73
2022-12-01T06:23:01.128Z,11.52
2022-12-01T06:25:28.771Z,13.25
2022-12-01T06:27:58.316Z,13.45
2022-12-01T06:30:26.597Z,13.55
2022-12-01T06:32:54.033Z,15.18
2022-12-01T06:35:21.727Z,14.50
2022-12-01T06:37:49.570Z,16.42
2022-12-01T06:40:17.317Z,15.88
2022-12-01T06:42:44.779Z,15.73
2022-12-01T06:45:12.525Z,17.83
2022-12-01T06:47:40.216Z,17.52
2022-12-01T06:50:10.023Z,17.40
2022-12-01T06:52:38.024Z,17.20
2022-12-01T06:57:34.357Z,16.00
2022-12-01T07:00:03.708Z,16.27
2022-12-01T07:02:31.584Z,16.73
2022-12-01T07:04:59.304Z,16.48
2022-12-01T07:07:26.884Z,15.57
2022-12-01T07:09:54.643Z,15.30
2022-12-01T07:12:22.336Z,16.25
2022-12-01T07:14:49.747Z,16.73
2022-12-01T07:17:17.158Z,15.50
2022-12-01T07:19:44.743Z,14.30
2022-12-01T07:22:12.868Z,14.27
2022-12-01T07:24:40.444Z,14.85
2022-12-01T07:27:08.072Z,14.43
2022-12-01T07:29:35.838Z,13.95
2022-12-01T07:32:03.367Z,14.35
2022-12-01T07:34:31.180Z,14.15
2022-12-01T07:36:58.971Z,13.23
2022-12-01T07:39:27.041Z,14.27
2022-12-01T07:41:54.863Z,14.23
2022-12-01T07:44:22.285Z,14.43
2022-12-01T07:46:50.403Z,13.50
2022-12-01T07:49:18.010Z,13.20
2022-12-01T07:51:45.558Z,12.85
2022-12-01T07:54:14.420Z,12.52
2022-12-01T07:56:42.078Z,12.35
2022-12-01T07:59:09.946Z,13.32
2022-12-01T08:01:42.926Z,12.65
2022-12-01T08:04:12.475Z,12.80
2022-12-01T08:06:39.981Z,12.52
2022-12-01T08:09:07.505Z,14.85
2022-12-01T08:11:36.054Z,12.57
2022-12-01T08:14:03.527Z,11.13
2022-12-01T08:16:31.523Z,16.48
2022-12-01T08:18:59.369Z,16.88
2022-12-01T08:21:26.940Z,14.82
2022-12-01T08:23:56.401Z,16.75
2022-12-01T08:26:25.438Z,14.95
2022-12-01T08:31:29.876Z,13.45
2022-12-01T08:33:57.926Z,14.10
2022-12-01T08:36:26.027Z,14.73
2022-12-01T08:38:55.297Z,15.55
2022-12-01T08:41:24.381Z,15.30
2022-12-01T08:46:32.492Z,13.05
2022-12-01T08:49:01.004Z,15.57
2022-12-01T08:51:29.508Z,15.93
2022-12-01T08:53:58.119Z,16.27
2022-12-01T08:56:32.655Z,14.48
2022-12-01T08:59:01.108Z,15.45
2022-12-01T09:01:29.329Z,11.80
2022-12-01T09:04:10.531Z,11.98
2022-12-01T09:06:42.461Z,15.02
2022-12-01T09:09:13.097Z,14.27
2022-12-01T09:11:41.159Z,15.30
2022-12-01T09:14:08.712Z,14.18
2022-12-01T09:16:36.756Z,14.68
2022-12-01T09:19:05.756Z,15.65
2022-12-01T09:21:35.139Z,14.20
2022-12-01T09:24:05.336Z,13.32
2022-12-01T09:26:33.815Z,13.77
2022-12-01T09:29:07.995Z,14.52
2022-12-01T09:31:36.480Z,14.68
2022-12-01T09:34:06.559Z,10.57
2022-12-01T09:36:35.928Z,14.15
2022-12-01T09:39:05.232Z,14.02
2022-12-01T09:41:37.195Z,13.30
2022-12-01T09:44:17.212Z,13.70
2022-12-01T09:46:53.970Z,18.85
2022-12-01T09:49:33.816Z,16.55
2022-12-01T09:52:02.090Z,16.23
2022-12-01T09:54:29.923Z,15.27
2022-12-01T09:56:59.616Z,17.52
2022-12-01T09:59:32.927Z,18.63
2022-12-01T10:02:13.626Z,19.23
2022-12-01T10:04:47.138Z,18.48
2022-12-01T10:07:30.798Z,17.50
2022-12-01T10:10:02.740Z,16.00
2022-12-01T10:12:34.445Z,17.75
2022-12-01T10:15:14.591Z,25.30
2022-12-01T10:18:00.787Z,18.90
2022-12-01T10:21:01.785Z,19.15
2022-12-01T10:23:51.402Z,19.27
2022-12-01T10:26:35.065Z,18.35
2022-12-01T10:29:26.891Z,21.02
2022-12-01T10:32:02.531Z,18.58
2022-12-01T10:34:34.490Z,17.60
2022-12-01T10:37:02.523Z,18.77
2022-12-01T10:39:44.688Z,13.10
2022-12-01T10:42:35.339Z,16.35
2022-12-01T10:45:07.702Z,17.42
2022-12-01T10:47:35.984Z,16.17
2022-12-01T10:50:04.420Z,12.40
2022-12-01T10:52:38.839Z,12.55
2022-12-01T10:55:28.245Z,15.32
2022-12-01T10:57:58.192Z,15.32
2022-12-01T11:03:29.496Z,15.50
2022-12-01T11:06:00.755Z,17.05
2022-12-01T11:08:31.453Z,67.20
2022-12-01T11:10:59.389Z,17.65
2022-12-01T11:13:29.519Z,17.20
2022-12-01T11:16:00.265Z,14.30
2022-12-01T12:34:06.982Z,18.13
2022-12-01T12:36:52.718Z,14.50
2022-12-01T12:39:36.543Z,19.67
2022-12-01T12:42:14.069Z,14.63
2022-12-01T12:44:51.801Z,14.40
2022-12-01T12:47:31.264Z,15.05
2022-12-01T12:50:02.206Z,14.68
2022-12-01T12:52:37.321Z,14.15
2022-12-01T12:55:23.184Z,14.25
2022-12-01T12:57:57.772Z,15.23
2022-12-01T13:00:28.547Z,15.13
2022-12-01T13:02:59.727Z,14.70
2022-12-01T13:05:47.660Z,15.38
2022-12-01T13:08:48.072Z,15.32
2022-12-01T13:11:27.291Z,16.88
2022-12-01T13:14:11.731Z,18.50
2022-12-01T13:16:43.184Z,15.63
2022-12-01T13:19:25.621Z,15.63
2022-12-01T13:21:54.878Z,18.08
2022-12-01T13:24:25.648Z,16.02
2022-12-01T13:26:59.245Z,17.15
2022-12-01T13:29:29.493Z,17.17
2022-12-01T13:31:57.025Z,16.85
2022-12-01T13:34:40.756Z,29.33
2022-12-01T13:37:10.612Z,20.08
2022-12-01T13:39:41.558Z,16.95
2022-12-01T13:42:21.577Z,16.92
2022-12-01T13:45:18.735Z,17.75
2022-12-01T13:47:46.545Z,17.45
2022-12-01T13:50:46.137Z,18.60
2022-12-01T13:53:19.267Z,18.23
2022-12-01T13:55:56.743Z,18.17
2022-12-01T13:58:43.729Z,20.10
2022-12-01T14:01:20.729Z,18.80
2022-12-01T14:03:57.357Z,19.55
2022-12-01T14:06:38.611Z,19.30
2022-12-01T14:09:15.089Z,19.85
2022-12-01T14:11:57.123Z,19.63
2022-12-01T14:14:27.100Z,21.42
2022-12-01T14:16:58.723Z,20.35
2022-12-01T14:19:44.111Z,20.58
2022-12-01T14:22:35.165Z,21.17
2022-12-01T14:25:07.710Z,22.67
2022-12-01T14:27:41.434Z,20.88
2022-12-01T14:30:41.374Z,21.08
2022-12-01T14:33:39.646Z,20.75
2022-12-01T14:36:14.965Z,21.33
2022-12-01T14:38:44.353Z,21.95
2022-12-01T14:41:22.586Z,22.67
2022-12-01T14:44:06.632Z,21.42
2022-12-01T14:46:57.921Z,21.63
2022-12-01T14:49:48.759Z,21.95
2022-12-01T14:52:28.726Z,22.88
2022-12-01T14:55:02.907Z,23.70
2022-12-01T14:57:50.482Z,22.83
2022-12-01T15:00:23.874Z,22.40
2022-12-01T15:03:07.226Z,24.48
2022-12-01T15:05:42.757Z,21.38
2022-12-01T15:11:30.257Z,23.63
2022-12-01T15:13:58.122Z,23.05
2022-12-01T15:16:28.930Z,22.83
2022-12-01T15:18:56.775Z,25.63
2022-12-01T15:21:31.061Z,19.13
2022-12-01T15:24:01.942Z,24.48
2022-12-01T15:26:36.770Z,40.03
2022-12-01T15:29:22.621Z,32.33
2022-12-01T15:32:01.570Z,25.15
2022-12-01T15:37:11.144Z,23.85
2022-12-01T15:39:46.279Z,26.02
2022-12-01T15:42:34.242Z,22.90
2022-12-01T15:45:15.471Z,22.63
2022-12-01T15:47:45.819Z,23.67
2022-12-01T15:50:31.070Z,23.55
2022-12-01T15:53:01.167Z,24.08
2022-12-01T15:55:32.278Z,23.20
2022-12-01T15:58:00.984Z,23.27
2022-12-01T16:00:28.485Z,18.30
2022-12-01T16:02:58.193Z,24.25
2022-12-01T16:05:33.635Z,23.08
2022-12-01T16:08:19.044Z,23.70
2022-12-01T16:10:46.747Z,24.17
2022-12-01T16:13:36.208Z,23.15
2022-12-01T16:16:29.987Z,27.52
2022-12-01T16:19:00.264Z,23.70
2022-12-01T16:21:31.094Z,23.60
2022-12-01T16:24:04.428Z,23.27
2022-12-01T16:26:33.537Z,23.25
2022-12-01T16:29:01.143Z,23.60
2022-12-01T16:31:28.783Z,23.02
2022-12-01T16:34:13.780Z,23.90
2022-12-01T16:36:50.204Z,22.35
2022-12-01T16:39:17.847Z,23.33
2022-12-01T16:41:46.881Z,21.88
2022-12-01T16:46:56.675Z,22.33
2022-12-01T16:49:24.247Z,22.70
2022-12-01T16:51:56.907Z,24.00
2022-12-01T16:54:25.533Z,22.35
2022-12-01T16:56:53.276Z,23.95
2022-12-01T16:59:20.792Z,23.98
2022-12-01T17:01:48.953Z,16.93
2022-12-01T17:04:16.736Z,22.33
2022-12-01T17:06:44.446Z,21.95
2022-12-01T17:09:12.000Z,22.13
2022-12-01T17:11:40.005Z,21.30
2022-12-01T17:14:07.906Z,21.52
2022-12-01T17:16:35.556Z,22.42
2022-12-01T17:19:04.407Z,20.38
2022-12-01T17:21:32.122Z,30.58
2022-12-01T17:23:59.924Z,22.08
2022-12-01T17:26:28.117Z,15.40
2022-12-01T17:28:56.225Z,24.17
2022-12-01T17:31:24.356Z,21.75
2022-12-01T17:33:52.559Z,17.20
2022-12-01T17:36:20.327Z,20.15
2022-12-01T17:38:48.243Z,21.40
2022-12-01T17:41:21.804Z,21.52
2022-12-01T17:43:49.492Z,22.48
2022-12-01T17:46:17.450Z,26.73
2022-12-01T17:48:46.898Z,19.83
2022-12-01T17:51:15.586Z,26.65
2022-12-01T17:53:43.244Z,17.00
2022-12-01T17:56:13.434Z,23.15
2022-12-01T17:58:41.420Z,22.02
2022-12-01T18:01:17.741Z,23.80
2022-12-01T18:03:46.801Z,21.67
2022-12-01T18:06:15.953Z,21.83
2022-12-01T18:11:14.669Z,20.48
2022-12-01T18:13:45.707Z,21.90
2022-12-01T18:16:21.807Z,19.90
2022-12-01T18:18:50.600Z,21.13
2022-12-01T18:21:20.621Z,20.30
2022-12-01T18:23:55.762Z,22.10
2022-12-01T18:26:24.624Z,20.10
2022-12-01T18:28:57.810Z,21.55
2022-12-01T18:31:28.875Z,20.48
2022-12-01T18:33:59.121Z,20.13
2022-12-01T18:36:26.742Z,20.08
2022-12-01T18:38:58.367Z,16.00
2022-12-01T18:41:27.389Z,20.20
2022-12-01T18:43:55.517Z,22.00
2022-12-01T18:46:23.590Z,22.60
2022-12-01T18:49:00.536Z,20.67
2022-12-01T18:51:34.324Z,21.27
2022-12-01T18:54:04.254Z,20.40
2022-12-01T18:56:33.609Z,20.42
2022-12-01T18:59:04.994Z,20.30
2022-12-01T19:01:36.372Z,20.38
2022-12-01T19:04:05.955Z,19.92
2022-12-01T19:06:34.975Z,21.77
2022-12-01T19:09:05.399Z,18.42
2022-12-01T19:11:33.547Z,19.27
2022-12-01T19:14:01.763Z,18.93
2022-12-01T19:16:31.141Z,15.05
2022-12-01T19:19:01.047Z,19.48
2022-12-01T19:21:29.581Z,20.58
2022-12-01T19:24:00.403Z,20.30
2022-12-01T19:26:28.199Z,19.95
2022-12-01T19:28:56.345Z,13.60
2022-12-01T19:31:24.968Z,18.92
2022-12-01T19:33:54.161Z,19.17
2022-12-01T19:38:51.330Z,19.30
2022-12-01T19:41:25.089Z,18.90
2022-12-01T19:43:53.916Z,18.40
2022-12-01T19:46:23.642Z,18.08
2022-12-01T19:48:57.473Z,18.95
2022-12-01T19:51:30.152Z,18.33
2022-12-01T19:53:58.195Z,18.23
2022-12-01T19:56:26.065Z,18.48
2022-12-01T19:58:53.928Z,18.42
2022-12-01T20:01:22.065Z,14.45
2022-12-01T20:03:52.224Z,18.13
2022-12-01T20:06:25.807Z,20.05
2022-12-01T20:09:02.701Z,18.67
2022-12-01T20:11:35.729Z,14.30
2022-12-01T20:14:07.410Z,17.92
2022-12-01T20:16:35.970Z,17.98
2022-12-01T20:19:05.120Z,18.38
2022-12-01T20:21:35.713Z,19.23
2022-12-01T20:24:06.581Z,19.42
2022-12-01T20:26:49.545Z,19.40
2022-12-01T20:29:26.895Z,21.80
2022-12-01T20:32:03.070Z,19.13
2022-12-01T20:34:34.832Z,19.08
2022-12-01T20:37:02.447Z,19.10
2022-12-01T20:39:32.501Z,20.02
2022-12-01T20:42:00.411Z,20.38
2022-12-01T20:44:29.339Z,16.38
2022-12-01T20:46:57.747Z,16.98
2022-12-01T20:49:26.120Z,17.25
2022-12-01T20:51:53.644Z,19.15
2022-12-01T20:54:30.105Z,18.17
2022-12-01T20:56:58.706Z,17.90
2022-12-01T20:59:26.925Z,17.88
2022-12-01T21:01:54.983Z,15.15
2022-12-01T21:04:22.912Z,17.65
2022-12-01T21:06:50.610Z,19.55
2022-12-01T21:09:18.162Z,17.88
2022-12-01T21:12:06.899Z,17.85
2022-12-01T21:15:02.690Z,17.42
2022-12-01T21:17:38.943Z,16.30
2022-12-01T21:20:11.597Z,17.55
2022-12-01T21:22:39.360Z,18.13
2022-12-01T21:25:15.461Z,17.27
2022-12-01T21:27:43.070Z,17.98
2022-12-01T21:30:24.959Z,16.58
2022-12-01T21:32:53.980Z,16.05
2022-12-01T21:35:25.404Z,16.13
2022-12-01T21:38:02.093Z,16.08
2022-12-01T21:40:30.856Z,15.65
2022-12-01T21:43:17.782Z,11.43
2022-12-01T21:45:46.273Z,16.02
2022-12-01T21:48:17.783Z,15.18
2022-12-01T21:50:50.886Z,15.68
2022-12-01T21:53:22.465Z,15.73
2022-12-01T21:55:50.274Z,12.30
2022-12-01T21:58:28.966Z,15.30
2022-12-01T22:00:58.856Z,12.63
2022-12-01T22:03:40.105Z,15.65
2022-12-01T22:06:29.785Z,14.93
2022-12-01T22:09:02.805Z,15.63
2022-12-01T22:11:30.996Z,14.90
2022-12-01T22:14:18.886Z,16.03
2022-12-01T22:16:54.643Z,11.47
2022-12-01T22:19:33.900Z,14.10
2022-12-01T22:22:08.597Z,15.77
2022-12-01T22:24:41.341Z,16.52
2022-12-01T22:27:11.579Z,15.30
2022-12-01T22:29:44.908Z,15.93
2022-12-01T22:32:12.327Z,16.42
2022-12-01T22:34:45.330Z,15.32
2022-12-01T22:37:21.955Z,17.23
2022-12-01T22:39:54.011Z,16.40
2022-12-01T22:42:39.616Z,16.20
2022-12-01T22:45:26.399Z,15.68
2022-12-01T22:48:02.010Z,16.40
2022-12-01T22:50:31.987Z,15.32
2022-12-01T22:53:10.618Z,17.13
2022-12-01T22:55:39.807Z,17.55
2022-12-01T22:58:19.716Z,16.85
2022-12-01T23:00:47.511Z,14.82
2022-12-01T23:03:16.196Z,19.88
2022-12-01T23:05:45.439Z,12.18
2022-12-01T23:08:22.344Z,16.10
2022-12-01T23:10:50.742Z,14.63
2022-12-01T23:13:23.957Z,13.10
2022-12-01T23:15:53.711Z,15.73
2022-12-01T23:18:29.698Z,15.00
2022-12-01T23:21:01.040Z,14.45
2022-12-01T23:23:30.007Z,13.95
2022-12-01T23:25:58.225Z,13.73
2022-12-01T23:28:25.762Z,12.73
2022-12-01T23:30:56.947Z,13.85
2022-12-01T23:33:29.519Z,12.32
2022-12-01T23:36:06.595Z,13.85
2022-12-01T23:38:49.604Z,13.68
2022-12-01T23:41:25.229Z,12.65
2022-12-01T23:43:55.369Z,13.40
2022-12-01T23:46:24.986Z,13.48
2022-12-01T23:48:58.847Z,13.52
2022-12-01T23:51:31.255Z,12.40
2022-12-01T23:54:01.533Z,12.70
2022-12-01T23:56:31.650Z,13.07
2022-12-01T23:59:00.879Z,12.95
